createdAt,value
2023-04-13T00:04:31.353Z,64.07
2023-04-13T00:09:33.509Z,64.40
2023-04-13T00:14:35.255Z,64.30
2023-04-13T00:19:37.132Z,64.29
2023-04-13T00:24:39.188Z,64.46
2023-04-13T00:29:41.074Z,64.43
2023-04-13T00:34:45.651Z,64.66
2023-04-13T00:39:47.509Z,64.62
2023-04-13T00:44:49.703Z,64.92
2023-04-13T00:49:51.953Z,64.84
2023-04-13T00:54:56.544Z,64.93
2023-04-13T01:00:12.758Z,64.96
2023-04-13T01:05:16.486Z,65.01
2023-04-13T01:10:18.672Z,64.98
2023-04-13T01:15:21.502Z,64.91
2023-04-13T01:20:25.858Z,65.10
2023-04-13T01:25:32.529Z,65.11
2023-04-13T01:30:36.206Z,65.09
2023-04-13T01:35:40.135Z,65.02
2023-04-13T01:40:46.070Z,65.16
2023-04-13T01:46:08.230Z,65.13
2023-04-13T01:51:20.501Z,65.13
2023-04-13T01:56:28.185Z,65.01
2023-04-13T02:01:37.316Z,64.93
2023-04-13T02:06:39.539Z,64.89
2023-04-13T02:11:44.324Z,64.98
2023-04-13T02:16:46.814Z,64.95
2023-04-13T02:21:50.110Z,65.02
2023-04-13T02:26:53.334Z,65.20
2023-04-13T02:31:56.350Z,65.20
2023-04-13T02:36:58.323Z,64.83
2023-04-13T02:42:00.308Z,65.15
2023-04-13T02:47:05.053Z,65.12
2023-04-13T02:52:07.048Z,65.20
2023-04-13T02:57:18.664Z,65.06
2023-04-13T03:02:21.678Z,65.08
2023-04-13T03:07:24.723Z,65.08
2023-04-13T03:12:28.560Z,65.10
2023-04-13T03:17:30.737Z,64.80
2023-04-13T03:22:32.845Z,64.83
2023-04-13T03:27:37.616Z,64.78
2023-04-13T03:32:40.084Z,64.66
2023-04-13T03:37:42.931Z,64.56
2023-04-13T03:43:08.197Z,64.42
2023-04-13T03:48:15.837Z,64.24
2023-04-13T03:53:17.909Z,64.17
2023-04-13T03:58:22.045Z,64.22
2023-04-13T04:03:25.940Z,64.13
2023-04-13T04:08:38.974Z,64.23
2023-04-13T04:13:47.916Z,63.91
2023-04-13T04:18:49.982Z,64.17
2023-04-13T04:23:54.451Z,64.01
2023-04-13T04:29:02.836Z,63.98
2023-04-13T04:34:10.640Z,64.04
2023-04-13T04:39:14.918Z,63.94
2023-04-13T04:44:25.588Z,63.86
2023-04-13T04:49:28.869Z,63.87
2023-04-13T04:54:32.337Z,63.71
2023-04-13T04:59:34.506Z,63.65
2023-04-13T05:04:39.700Z,63.59
2023-04-13T05:09:42.287Z,63.69
2023-04-13T05:14:44.216Z,63.75
2023-04-13T05:19:48.463Z,63.41
2023-04-13T05:25:01.216Z,63.58
2023-04-13T05:30:06.049Z,63.22
2023-04-13T05:35:11.709Z,62.78
2023-04-13T05:40:15.018Z,62.34
2023-04-13T05:45:17.654Z,62.24
2023-04-13T05:50:38.596Z,61.45
2023-04-13T05:55:42.942Z,60.96
2023-04-13T06:00:45.074Z,60.90
2023-04-13T06:05:52.907Z,60.28
2023-04-13T06:10:54.892Z,59.82
2023-04-13T06:15:57.528Z,60.09
2023-04-13T06:20:59.801Z,60.04
2023-04-13T06:26:03.694Z,59.92
2023-04-13T06:31:16.679Z,59.56
2023-04-13T06:36:22.180Z,59.61
2023-04-13T06:41:27.284Z,59.74
2023-04-13T06:46:46.403Z,59.41
2023-04-13T06:51:48.492Z,59.48
2023-04-13T06:56:51.293Z,59.26
2023-04-13T07:01:53.422Z,59.35
2023-04-13T07:06:55.345Z,59.14
2023-04-13T07:11:58.112Z,58.97
2023-04-13T07:17:01.067Z,58.76
2023-04-13T07:22:04.491Z,58.63
2023-04-13T07:27:08.972Z,58.68
2023-04-13T07:32:11.657Z,58.66
2023-04-13T07:37:14.584Z,58.63
2023-04-13T07:42:16.944Z,58.55
2023-04-13T07:47:24.217Z,58.61
2023-04-13T07:52:29.700Z,58.25
2023-04-13T07:57:31.774Z,57.84
2023-04-13T08:02:38.900Z,57.88
2023-04-13T08:07:41.647Z,57.62
2023-04-13T08:12:43.925Z,57.26
2023-04-13T08:17:47.585Z,57.66
2023-04-13T08:22:50.312Z,57.24
2023-04-13T08:27:54.988Z,56.58
2023-04-13T08:32:58.127Z,56.70
2023-04-13T08:38:02.711Z,56.90
2023-04-13T08:43:06.782Z,56.43
2023-04-13T08:48:14.181Z,56.44
2023-04-13T08:53:18.431Z,56.22
2023-04-13T08:58:24.540Z,56.10
2023-04-13T09:03:34.643Z,55.66
2023-04-13T09:08:38.169Z,55.56
2023-04-13T09:13:49.701Z,55.17
2023-04-13T09:18:53.480Z,55.16
2023-04-13T09:23:57.304Z,55.32
2023-04-13T09:28:59.811Z,55.11
2023-04-13T09:34:02.242Z,54.45
2023-04-13T09:39:05.540Z,54.40
2023-04-13T09:44:21.003Z,54.52
2023-04-13T09:49:24.077Z,54.66
2023-04-13T09:54:26.297Z,54.60
2023-04-13T09:59:30.270Z,54.66
2023-04-13T10:04:34.722Z,54.28
2023-04-13T10:09:36.791Z,54.12
2023-04-13T10:14:40.984Z,53.28
2023-04-13T10:19:52.002Z,53.28
2023-04-13T10:24:54.005Z,53.37
2023-04-13T10:29:56.012Z,52.97
2023-04-13T10:35:11.979Z,52.37
2023-04-13T10:40:14.580Z,51.40
2023-04-13T10:45:27.192Z,50.76
2023-04-13T10:50:29.176Z,51.02
2023-04-13T10:55:35.454Z,50.03
2023-04-13T11:05:42.115Z,49.56
2023-04-13T11:10:51.423Z,49.06
2023-04-13T11:16:02.168Z,49.63
2023-04-13T11:21:06.840Z,49.91
2023-04-13T11:26:11.162Z,49.76
2023-04-13T11:31:13.237Z,49.64
2023-04-13T11:36:20.008Z,49.81
2023-04-13T11:41:21.817Z,49.79
2023-04-13T11:46:26.917Z,50.15
2023-04-13T11:51:29.137Z,50.06
2023-04-13T11:56:31.241Z,50.03
2023-04-13T12:01:34.491Z,50.26
2023-04-13T12:06:42.746Z,50.26
2023-04-13T12:11:50.179Z,50.18
2023-04-13T12:22:03.456Z,49.90
2023-04-13T12:32:15.146Z,49.36
2023-04-13T12:37:17.270Z,49.33
2023-04-13T12:42:19.155Z,49.10
2023-04-13T12:47:21.179Z,49.04
2023-04-13T12:52:23.233Z,49.39
2023-04-13T12:57:25.040Z,49.04
2023-04-13T13:02:31.014Z,49.07
2023-04-13T13:07:33.020Z,48.94
2023-04-13T13:12:34.899Z,48.93
2023-04-13T13:17:40.484Z,48.88
2023-04-13T13:22:43.249Z,48.94
2023-04-13T13:32:49.891Z,48.24
2023-04-13T13:37:51.904Z,48.12
2023-04-13T13:42:54.222Z,48.05
2023-04-13T13:47:58.398Z,48.09
2023-04-13T13:53:24.139Z,48.06
2023-04-13T13:58:26.034Z,47.89
2023-04-13T14:03:27.922Z,47.43
2023-04-13T14:08:30.010Z,47.31
2023-04-13T14:13:31.956Z,47.02
2023-04-13T14:18:33.899Z,46.80
2023-04-13T14:23:37.636Z,47.08
2023-04-13T14:28:39.691Z,46.82
2023-04-13T14:33:42.336Z,46.80
2023-04-13T14:38:44.245Z,46.98
2023-04-13T14:43:46.064Z,47.00
2023-04-13T14:48:47.943Z,47.47
2023-04-13T14:53:50.197Z,47.25
2023-04-13T14:58:52.151Z,46.64
2023-04-13T15:03:54.540Z,46.87
2023-04-13T15:08:56.556Z,46.99
2023-04-13T15:13:58.328Z,47.20
2023-04-13T15:19:00.601Z,46.95
2023-04-13T15:24:02.823Z,46.98
2023-04-13T15:29:04.586Z,46.62
2023-04-13T15:34:08.611Z,46.62
2023-04-13T15:39:10.456Z,46.59
2023-04-13T15:44:12.315Z,46.77
2023-04-13T15:49:14.134Z,46.69
2023-04-13T15:54:16.127Z,46.79
2023-04-13T15:59:17.975Z,46.96
2023-04-13T16:04:20.127Z,46.97
2023-04-13T16:09:22.078Z,46.83
2023-04-13T16:14:23.896Z,47.13
2023-04-13T16:19:25.910Z,47.15
2023-04-13T16:24:27.655Z,47.36
2023-04-13T16:29:32.812Z,47.10
2023-04-13T16:34:35.031Z,47.21
2023-04-13T16:39:36.785Z,47.13
2023-04-13T16:44:38.551Z,47.42
2023-04-13T16:49:40.502Z,47.45
2023-04-13T16:54:46.264Z,47.55
2023-04-13T16:59:48.028Z,47.69
2023-04-13T17:04:50.168Z,47.48
2023-04-13T17:09:52.046Z,47.80
2023-04-13T17:14:54.365Z,47.75
2023-04-13T17:19:56.449Z,47.78
2023-04-13T17:24:58.274Z,47.95
2023-04-13T17:30:00.052Z,48.17
2023-04-13T17:35:02.165Z,48.08
2023-04-13T17:40:04.443Z,48.22
2023-04-13T17:45:06.704Z,48.29
2023-04-13T17:50:08.958Z,48.11
2023-04-13T17:55:10.947Z,48.19
2023-04-13T18:00:14.145Z,48.31
2023-04-13T18:05:18.423Z,48.51
2023-04-13T18:10:20.313Z,48.84
2023-04-13T18:15:23.235Z,49.21
2023-04-13T18:20:25.291Z,49.42
2023-04-13T18:25:27.188Z,49.42
2023-04-13T18:30:29.035Z,49.62
2023-04-13T18:35:30.908Z,49.63
2023-04-13T18:40:32.716Z,49.72
2023-04-13T18:45:34.596Z,49.92
2023-04-13T18:50:37.030Z,49.74
2023-04-13T18:55:39.661Z,49.92
2023-04-13T19:00:41.471Z,49.99
2023-04-13T19:05:43.524Z,50.17
2023-04-13T19:10:45.483Z,50.56
2023-04-13T19:15:47.470Z,50.72
2023-04-13T19:20:49.912Z,51.00
2023-04-13T19:25:51.801Z,50.88
2023-04-13T19:30:55.176Z,50.88
2023-04-13T19:35:57.037Z,50.68
2023-04-13T19:40:59.137Z,50.82
2023-04-13T19:46:01.257Z,51.14
2023-04-13T19:51:03.186Z,51.35
2023-04-13T19:56:05.162Z,51.43
2023-04-13T20:01:08.061Z,51.62
2023-04-13T20:06:10.744Z,51.63
2023-04-13T20:11:12.980Z,51.79
2023-04-13T20:16:14.851Z,51.66
2023-04-13T20:21:18.387Z,51.68
2023-04-13T20:26:22.625Z,51.58
2023-04-13T20:31:25.410Z,51.68
2023-04-13T20:36:27.368Z,51.82
2023-04-13T20:41:32.405Z,51.91
2023-04-13T20:46:35.207Z,51.95
2023-04-13T20:51:37.616Z,52.04
2023-04-13T20:56:39.444Z,52.06
2023-04-13T21:01:41.613Z,52.13
2023-04-13T21:06:45.040Z,52.01
2023-04-13T21:11:48.068Z,52.05
2023-04-13T21:16:50.030Z,52.19
2023-04-13T21:21:57.460Z,52.14
2023-04-13T21:27:02.601Z,52.13
2023-04-13T21:32:04.527Z,52.02
2023-04-13T21:37:06.957Z,52.24
2023-04-13T21:42:09.193Z,52.25
2023-04-13T21:47:11.322Z,52.22
2023-04-13T21:52:13.175Z,52.29
2023-04-13T21:57:15.187Z,52.35
2023-04-13T22:02:17.078Z,52.36
2023-04-13T22:07:22.145Z,52.35
2023-04-13T22:12:30.545Z,52.26
2023-04-13T22:17:32.399Z,52.45
2023-04-13T22:22:34.190Z,52.44
2023-04-13T22:27:37.786Z,52.41
2023-04-13T22:32:41.670Z,52.51
2023-04-13T22:37:43.596Z,52.57
2023-04-13T22:42:45.520Z,52.68
2023-04-13T22:47:47.687Z,52.69
2023-04-13T22:52:49.573Z,52.75
2023-04-13T22:57:51.393Z,52.84
2023-04-13T23:02:56.178Z,52.95
2023-04-13T23:07:58.299Z,52.86
2023-04-13T23:13:00.418Z,53.04
2023-04-13T23:18:02.862Z,52.97
2023-04-13T23:23:04.823Z,53.03
2023-04-13T23:28:06.809Z,53.10
2023-04-13T23:33:08.768Z,53.22
2023-04-13T23:38:10.740Z,53.28
2023-04-13T23:43:12.596Z,53.27
2023-04-13T23:48:14.447Z,53.44
2023-04-13T23:53:16.701Z,53.42
2023-04-13T23:58:18.534Z,53.48
